sensor_id;sensor_type;location;lat;lon;timestamp;pressure;altitude;pressure_sealevel;temperature;humidity
51617;BME280;37697;52.588;13.394;2023-04-15T00:03:34;100086.55;;;7.34;96.18
51617;BME280;37697;52.588;13.394;2023-04-15T00:08:40;100076.67;;;7.32;96.19
51617;BME280;37697;52.588;13.394;2023-04-15T00:13:46;100078.66;;;7.35;96.12
51617;BME280;37697;52.588;13.394;2023-04-15T00:18:51;100075.13;;;7.33;96.07
51617;BME280;37697;52.588;13.394;2023-04-15T00:23:56;100073.45;;;7.31;96.24
51617;BME280;37697;52.588;13.394;2023-04-15T00:29:02;100072.16;;;7.30;96.37
51617;BME280;37697;52.588;13.394;2023-04-15T00:34:07;100070.73;;;7.30;96.40
51617;BME280;37697;52.588;13.394;2023-04-15T00:39:12;100068.23;;;7.33;96.23
51617;BME280;37697;52.588;13.394;2023-04-15T00:44:18;100070.02;;;7.33;96.32
51617;BME280;37697;52.588;13.394;2023-04-15T00:49:23;100064.58;;;7.32;96.20
51617;BME280;37697;52.588;13.394;2023-04-15T00:54:29;100064.48;;;7.31;96.29
51617;BME280;37697;52.588;13.394;2023-04-15T00:59:34;100059.52;;;7.32;96.22
51617;BME280;37697;52.588;13.394;2023-04-15T01:04:40;100054.58;;;7.33;96.08
51617;BME280;37697;52.588;13.394;2023-04-15T01:09:46;100059.91;;;7.36;96.15
51617;BME280;37697;52.588;13.394;2023-04-15T01:14:52;100052.71;;;7.34;96.07
51617;BME280;37697;52.588;13.394;2023-04-15T01:19:57;100047.73;;;7.34;96.24
51617;BME280;37697;52.588;13.394;2023-04-15T01:25:11;100047.77;;;7.34;95.99
51617;BME280;37697;52.588;13.394;2023-04-15T01:30:17;100049.61;;;7.35;96.25
51617;BME280;37697;52.588;13.394;2023-04-15T01:35:23;100051.77;;;7.37;96.10
51617;BME280;37697;52.588;13.394;2023-04-15T01:40:28;100046.77;;;7.38;96.17
51617;BME280;37697;52.588;13.394;2023-04-15T01:45:34;100043.89;;;7.37;96.08
51617;BME280;37697;52.588;13.394;2023-04-15T01:50:39;100044.96;;;7.35;96.17
51617;BME280;37697;52.588;13.394;2023-04-15T01:55:44;100038.58;;;7.37;96.37
51617;BME280;37697;52.588;13.394;2023-04-15T02:00:50;100038.66;;;7.39;96.17
51617;BME280;37697;52.588;13.394;2023-04-15T02:05:55;100031.05;;;7.42;96.27
51617;BME280;37697;52.588;13.394;2023-04-15T02:11:01;100036.99;;;7.44;95.92
51617;BME280;37697;52.588;13.394;2023-04-15T02:16:15;100034.24;;;7.44;96.19
51617;BME280;37697;52.588;13.394;2023-04-15T02:21:21;100033.52;;;7.44;96.28
51617;BME280;37697;52.588;13.394;2023-04-15T02:26:27;100036.78;;;7.46;96.29
51617;BME280;37697;52.588;13.394;2023-04-15T02:31:32;100034.26;;;7.47;96.21
51617;BME280;37697;52.588;13.394;2023-04-15T02:36:41;100031.92;;;7.48;96.22
51617;BME280;37697;52.588;13.394;2023-04-15T02:41:46;100033.69;;;7.48;96.13
51617;BME280;37697;52.588;13.394;2023-04-15T02:46:56;100035.15;;;7.45;96.12
51617;BME280;37697;52.588;13.394;2023-04-15T02:52:02;100038.80;;;7.43;96.29
51617;BME280;37697;52.588;13.394;2023-04-15T02:57:07;100045.90;;;7.44;96.34
51617;BME280;37697;52.588;13.394;2023-04-15T03:02:13;100046.80;;;7.47;96.31
51617;BME280;37697;52.588;13.394;2023-04-15T03:07:19;100040.97;;;7.48;96.47
51617;BME280;37697;52.588;13.394;2023-04-15T03:12:24;100043.77;;;7.49;96.52
51617;BME280;37697;52.588;13.394;2023-04-15T03:17:29;100044.70;;;7.51;96.48
51617;BME280;37697;52.588;13.394;2023-04-15T03:22:35;100041.56;;;7.53;96.44
51617;BME280;37697;52.588;13.394;2023-04-15T03:27:40;100045.33;;;7.53;96.51
51617;BME280;37697;52.588;13.394;2023-04-15T03:32:46;100050.27;;;7.54;96.78
51617;BME280;37697;52.588;13.394;2023-04-15T03:37:51;100051.83;;;7.57;96.73
51617;BME280;37697;52.588;13.394;2023-04-15T03:42:57;100050.75;;;7.59;96.52
51617;BME280;37697;52.588;13.394;2023-04-15T03:48:02;100052.42;;;7.60;96.51
51617;BME280;37697;52.588;13.394;2023-04-15T03:53:21;100044.64;;;7.58;96.60
51617;BME280;37697;52.588;13.394;2023-04-15T03:58:27;100048.03;;;7.59;96.80
51617;BME280;37697;52.588;13.394;2023-04-15T04:03:32;100047.11;;;7.60;96.86
51617;BME280;37697;52.588;13.394;2023-04-15T04:08:38;100050.84;;;7.61;96.94
51617;BME280;37697;52.588;13.394;2023-04-15T04:13:43;100048.73;;;7.62;96.88
51617;BME280;37697;52.588;13.394;2023-04-15T04:18:49;100057.55;;;7.63;96.99
51617;BME280;37697;52.588;13.394;2023-04-15T04:23:54;100057.55;;;7.65;96.94
51617;BME280;37697;52.588;13.394;2023-04-15T04:29:00;100059.39;;;7.68;97.06
51617;BME280;37697;52.588;13.394;2023-04-15T04:34:06;100061.69;;;7.68;97.09
51617;BME280;37697;52.588;13.394;2023-04-15T04:39:11;100062.52;;;7.71;97.06
51617;BME280;37697;52.588;13.394;2023-04-15T04:44:17;100064.82;;;7.73;97.20
51617;BME280;37697;52.588;13.394;2023-04-15T04:49:22;100061.34;;;7.74;97.33
51617;BME280;37697;52.588;13.394;2023-04-15T04:54:27;100067.20;;;7.76;97.10
51617;BME280;37697;52.588;13.394;2023-04-15T04:59:33;100071.95;;;7.77;97.19
51617;BME280;37697;52.588;13.394;2023-04-15T05:04:38;100074.85;;;7.81;97.50
51617;BME280;37697;52.588;13.394;2023-04-15T05:09:43;100082.02;;;7.84;97.39
51617;BME280;37697;52.588;13.394;2023-04-15T05:14:48;100078.30;;;7.87;97.44
51617;BME280;37697;52.588;13.394;2023-04-15T05:19:54;100086.12;;;7.91;97.43
51617;BME280;37697;52.588;13.394;2023-04-15T05:24:59;100087.91;;;7.95;97.40
51617;BME280;37697;52.588;13.394;2023-04-15T05:30:06;100091.05;;;8.00;97.53
51617;BME280;37697;52.588;13.394;2023-04-15T05:35:13;100094.10;;;8.05;97.54
51617;BME280;37697;52.588;13.394;2023-04-15T05:40:18;100096.13;;;8.08;97.14
51617;BME280;37697;52.588;13.394;2023-04-15T05:45:24;100094.48;;;8.12;97.37
51617;BME280;37697;52.588;13.394;2023-04-15T05:50:29;100095.72;;;8.19;97.37
51617;BME280;37697;52.588;13.394;2023-04-15T05:55:35;100098.61;;;8.25;97.32
51617;BME280;37697;52.588;13.394;2023-04-15T06:00:41;100097.58;;;8.33;97.00
51617;BME280;37697;52.588;13.394;2023-04-15T06:05:46;100098.62;;;8.43;97.01
51617;BME280;37697;52.588;13.394;2023-04-15T06:10:51;100094.39;;;8.52;97.07
51617;BME280;37697;52.588;13.394;2023-04-15T06:15:57;100092.66;;;8.65;96.82
51617;BME280;37697;52.588;13.394;2023-04-15T06:21:02;100096.29;;;8.78;96.70
51617;BME280;37697;52.588;13.394;2023-04-15T06:26:08;100097.23;;;8.95;96.36
51617;BME280;37697;52.588;13.394;2023-04-15T06:31:14;100096.98;;;9.14;96.01
51617;BME280;37697;52.588;13.394;2023-04-15T06:36:20;100097.39;;;9.28;95.53
51617;BME280;37697;52.588;13.394;2023-04-15T06:41:25;100097.59;;;9.38;95.31
51617;BME280;37697;52.588;13.394;2023-04-15T06:46:31;100102.36;;;9.52;94.74
51617;BME280;37697;52.588;13.394;2023-04-15T06:51:36;100108.17;;;9.74;94.71
51617;BME280;37697;52.588;13.394;2023-04-15T06:56:42;100109.27;;;9.93;94.24
51617;BME280;37697;52.588;13.394;2023-04-15T07:01:47;100116.83;;;10.01;93.45
51617;BME280;37697;52.588;13.394;2023-04-15T07:06:53;100126.20;;;10.05;93.11
51617;BME280;37697;52.588;13.394;2023-04-15T07:11:59;100130.85;;;10.02;92.48
51617;BME280;37697;52.588;13.394;2023-04-15T07:17:05;100136.73;;;9.96;92.26
51617;BME280;37697;52.588;13.394;2023-04-15T07:22:10;100141.81;;;9.96;91.98
51617;BME280;37697;52.588;13.394;2023-04-15T07:27:16;100143.44;;;9.93;91.07
51617;BME280;37697;52.588;13.394;2023-04-15T07:32:22;100152.15;;;9.88;91.27
51617;BME280;37697;52.588;13.394;2023-04-15T07:37:27;100160.75;;;9.87;91.14
51617;BME280;37697;52.588;13.394;2023-04-15T07:42:32;100164.15;;;9.92;91.02
51617;BME280;37697;52.588;13.394;2023-04-15T07:47:38;100167.80;;;9.92;90.48
51617;BME280;37697;52.588;13.394;2023-04-15T07:52:44;100169.84;;;9.92;91.02
51617;BME280;37697;52.588;13.394;2023-04-15T07:57:50;100169.52;;;9.91;90.24
51617;BME280;37697;52.588;13.394;2023-04-15T08:02:56;100169.94;;;9.87;90.17
51617;BME280;37697;52.588;13.394;2023-04-15T08:08:04;100174.77;;;9.83;89.96
51617;BME280;37697;52.588;13.394;2023-04-15T08:13:09;100177.39;;;9.77;89.63
51617;BME280;37697;52.588;13.394;2023-04-15T08:18:15;100178.41;;;9.75;89.88
51617;BME280;37697;52.588;13.394;2023-04-15T08:23:20;100184.54;;;9.68;89.35
51617;BME280;37697;52.588;13.394;2023-04-15T08:28:25;100188.08;;;9.62;89.72
51617;BME280;37697;52.588;13.394;2023-04-15T08:33:31;100193.75;;;9.59;89.91
51617;BME280;37697;52.588;13.394;2023-04-15T08:38:36;100193.58;;;9.66;89.92
51617;BME280;37697;52.588;13.394;2023-04-15T08:43:48;100191.59;;;9.76;90.22
51617;BME280;37697;52.588;13.394;2023-04-15T08:48:58;100198.94;;;9.87;90.26
51617;BME280;37697;52.588;13.394;2023-04-15T08:54:07;100202.61;;;9.90;90.04
51617;BME280;37697;52.588;13.394;2023-04-15T08:59:16;100201.83;;;9.90;89.93
51617;BME280;37697;52.588;13.394;2023-04-15T09:04:22;100206.36;;;9.90;89.55
51617;BME280;37697;52.588;13.394;2023-04-15T09:09:56;100206.79;;;9.90;89.80
51617;BME280;37697;52.588;13.394;2023-04-15T09:15:02;100211.28;;;9.91;89.85
51617;BME280;37697;52.588;13.394;2023-04-15T09:20:13;100212.27;;;10.02;90.11
51617;BME280;37697;52.588;13.394;2023-04-15T09:25:29;100217.00;;;10.11;89.70
51617;BME280;37697;52.588;13.394;2023-04-15T09:30:38;100223.38;;;10.16;89.34
51617;BME280;37697;52.588;13.394;2023-04-15T09:35:57;100225.64;;;10.20;89.90
51617;BME280;37697;52.588;13.394;2023-04-15T09:41:03;100229.71;;;10.24;88.87
51617;BME280;37697;52.588;13.394;2023-04-15T09:46:20;100238.14;;;10.24;88.48
51617;BME280;37697;52.588;13.394;2023-04-15T09:51:44;100241.41;;;10.19;88.23
51617;BME280;37697;52.588;13.394;2023-04-15T09:57:09;100244.93;;;10.28;88.81
51617;BME280;37697;52.588;13.394;2023-04-15T10:02:16;100247.48;;;10.33;89.07
51617;BME280;37697;52.588;13.394;2023-04-15T10:07:23;100248.48;;;10.47;89.53
51617;BME280;37697;52.588;13.394;2023-04-15T10:12:31;100253.77;;;10.58;89.47
51617;BME280;37697;52.588;13.394;2023-04-15T10:17:37;100259.63;;;10.53;88.10
51617;BME280;37697;52.588;13.394;2023-04-15T10:22:47;100263.34;;;10.35;88.15
51617;BME280;37697;52.588;13.394;2023-04-15T10:27:52;100267.11;;;10.28;88.31
51617;BME280;37697;52.588;13.394;2023-04-15T10:32:58;100267.69;;;10.27;88.63
51617;BME280;37697;52.588;13.394;2023-04-15T10:38:34;100266.61;;;10.34;88.89
51617;BME280;37697;52.588;13.394;2023-04-15T10:43:40;100270.43;;;10.35;88.85
51617;BME280;37697;52.588;13.394;2023-04-15T10:48:51;100269.59;;;10.34;88.92
51617;BME280;37697;52.588;13.394;2023-04-15T10:53:58;100273.32;;;10.36;89.26
51617;BME280;37697;52.588;13.394;2023-04-15T10:59:05;100275.72;;;10.40;89.49
51617;BME280;37697;52.588;13.394;2023-04-15T11:04:11;100275.47;;;10.34;89.17
51617;BME280;37697;52.588;13.394;2023-04-15T11:09:33;100286.31;;;10.37;89.60
51617;BME280;37697;52.588;13.394;2023-04-15T11:14:41;100292.94;;;10.40;89.85
51617;BME280;37697;52.588;13.394;2023-04-15T11:19:47;100298.67;;;10.40;89.72
51617;BME280;37697;52.588;13.394;2023-04-15T11:24:53;100300.98;;;10.33;89.44
51617;BME280;37697;52.588;13.394;2023-04-15T11:29:58;100307.70;;;10.25;89.66
51617;BME280;37697;52.588;13.394;2023-04-15T11:35:04;100311.42;;;10.23;90.19
51617;BME280;37697;52.588;13.394;2023-04-15T11:40:10;100311.30;;;10.27;90.59
51617;BME280;37697;52.588;13.394;2023-04-15T11:45:17;100316.80;;;10.29;90.50
51617;BME280;37697;52.588;13.394;2023-04-15T11:50:23;100323.82;;;10.25;90.59
51617;BME280;37697;52.588;13.394;2023-04-15T11:55:29;100330.16;;;10.17;90.41
51617;BME280;37697;52.588;13.394;2023-04-15T12:00:36;100334.13;;;10.15;91.06
51617;BME280;37697;52.588;13.394;2023-04-15T12:06:03;100339.39;;;10.12;90.91
51617;BME280;37697;52.588;13.394;2023-04-15T12:11:08;100340.85;;;10.07;90.94
51617;BME280;37697;52.588;13.394;2023-04-15T12:16:17;100346.98;;;10.09;91.37
51617;BME280;37697;52.588;13.394;2023-04-15T12:21:25;100348.69;;;10.11;91.55
51617;BME280;37697;52.588;13.394;2023-04-15T12:26:32;100356.80;;;10.17;91.80
51617;BME280;37697;52.588;13.394;2023-04-15T12:31:47;100358.29;;;10.24;91.78
51617;BME280;37697;52.588;13.394;2023-04-15T12:36:54;100359.34;;;10.26;92.31
51617;BME280;37697;52.588;13.394;2023-04-15T12:41:59;100363.17;;;10.30;92.09
51617;BME280;37697;52.588;13.394;2023-04-15T12:47:07;100368.76;;;10.30;92.28
51617;BME280;37697;52.588;13.394;2023-04-15T12:52:13;100376.73;;;10.24;92.23
51617;BME280;37697;52.588;13.394;2023-04-15T12:57:19;100377.55;;;10.27;92.59
51617;BME280;37697;52.588;13.394;2023-04-15T13:02:24;100385.06;;;10.35;92.88
51617;BME280;37697;52.588;13.394;2023-04-15T13:07:32;100387.62;;;10.38;92.76
51617;BME280;37697;52.588;13.394;2023-04-15T13:12:38;100389.26;;;10.37;92.55
51617;BME280;37697;52.588;13.394;2023-04-15T13:17:43;100394.43;;;10.36;92.55
51617;BME280;37697;52.588;13.394;2023-04-15T13:22:48;100399.89;;;10.36;92.59
51617;BME280;37697;52.588;13.394;2023-04-15T13:27:54;100399.97;;;10.33;92.50
51617;BME280;37697;52.588;13.394;2023-04-15T13:32:59;100403.30;;;10.31;92.64
51617;BME280;37697;52.588;13.394;2023-04-15T13:38:05;100405.70;;;10.29;92.49
51617;BME280;37697;52.588;13.394;2023-04-15T13:43:10;100411.73;;;10.25;92.82
51617;BME280;37697;52.588;13.394;2023-04-15T13:48:16;100413.58;;;10.26;93.28
51617;BME280;37697;52.588;13.394;2023-04-15T13:53:21;100417.00;;;10.28;93.14
51617;BME280;37697;52.588;13.394;2023-04-15T13:58:43;100429.35;;;10.27;93.36
51617;BME280;37697;52.588;13.394;2023-04-15T14:03:48;100431.11;;;10.22;93.09
51617;BME280;37697;52.588;13.394;2023-04-15T14:08:54;100436.83;;;10.23;93.41
51617;BME280;37697;52.588;13.394;2023-04-15T14:14:00;100436.19;;;10.24;93.53
51617;BME280;37697;52.588;13.394;2023-04-15T14:19:05;100442.90;;;10.21;93.39
51617;BME280;37697;52.588;13.394;2023-04-15T14:24:11;100449.28;;;10.22;93.65
51617;BME280;37697;52.588;13.394;2023-04-15T14:29:16;100458.14;;;10.21;93.53
51617;BME280;37697;52.588;13.394;2023-04-15T14:34:22;100465.09;;;10.16;93.67
51617;BME280;37697;52.588;13.394;2023-04-15T14:39:29;100473.36;;;10.15;93.85
51617;BME280;37697;52.588;13.394;2023-04-15T14:44:34;100477.89;;;10.12;93.77
51617;BME280;37697;52.588;13.394;2023-04-15T14:49:40;100480.60;;;10.11;94.00
51617;BME280;37697;52.588;13.394;2023-04-15T14:54:45;100484.90;;;10.13;94.16
51617;BME280;37697;52.588;13.394;2023-04-15T14:59:51;100493.31;;;10.16;94.04
51617;BME280;37697;52.588;13.394;2023-04-15T15:05:01;100498.86;;;10.20;94.19
51617;BME280;37697;52.588;13.394;2023-04-15T15:10:09;100503.08;;;10.23;94.27
51617;BME280;37697;52.588;13.394;2023-04-15T15:15:14;100508.83;;;10.22;94.31
51617;BME280;37697;52.588;13.394;2023-04-15T15:20:33;100510.70;;;10.19;94.16
51617;BME280;37697;52.588;13.394;2023-04-15T15:25:39;100518.52;;;10.16;94.59
51617;BME280;37697;52.588;13.394;2023-04-15T15:30:44;100520.88;;;10.12;94.50
51617;BME280;37697;52.588;13.394;2023-04-15T15:35:50;100523.36;;;10.11;94.79
51617;BME280;37697;52.588;13.394;2023-04-15T15:40:56;100529.38;;;10.10;94.73
51617;BME280;37697;52.588;13.394;2023-04-15T15:46:02;100532.63;;;10.01;94.76
51617;BME280;37697;52.588;13.394;2023-04-15T15:51:09;100532.09;;;10.00;95.15
51617;BME280;37697;52.588;13.394;2023-04-15T15:56:15;100536.44;;;10.00;95.19
51617;BME280;37697;52.588;13.394;2023-04-15T16:01:20;100541.91;;;10.01;95.45
51617;BME280;37697;52.588;13.394;2023-04-15T16:06:26;100546.48;;;10.03;95.37
51617;BME280;37697;52.588;13.394;2023-04-15T16:11:31;100550.45;;;10.01;95.40
51617;BME280;37697;52.588;13.394;2023-04-15T16:16:37;100553.82;;;10.01;95.27
51617;BME280;37697;52.588;13.394;2023-04-15T16:21:42;100556.39;;;9.99;95.34
51617;BME280;37697;52.588;13.394;2023-04-15T16:26:48;100565.20;;;9.99;95.52
51617;BME280;37697;52.588;13.394;2023-04-15T16:31:54;100566.27;;;9.97;95.49
51617;BME280;37697;52.588;13.394;2023-04-15T16:37:00;100572.77;;;9.94;95.50
51617;BME280;37697;52.588;13.394;2023-04-15T16:42:06;100578.70;;;9.92;95.59
51617;BME280;37697;52.588;13.394;2023-04-15T16:47:12;100579.38;;;9.90;95.66
51617;BME280;37697;52.588;13.394;2023-04-15T16:52:17;100583.30;;;9.86;95.79
51617;BME280;37697;52.588;13.394;2023-04-15T16:57:23;100584.89;;;9.83;95.75
51617;BME280;37697;52.588;13.394;2023-04-15T17:02:35;100591.69;;;9.84;96.02
51617;BME280;37697;52.588;13.394;2023-04-15T17:07:41;100599.88;;;9.85;96.01
51617;BME280;37697;52.588;13.394;2023-04-15T17:12:46;100601.33;;;9.84;95.89
51617;BME280;37697;52.588;13.394;2023-04-15T17:17:51;100602.36;;;9.81;96.08
51617;BME280;37697;52.588;13.394;2023-04-15T17:22:57;100610.21;;;9.82;96.11
51617;BME280;37697;52.588;13.394;2023-04-15T17:28:03;100618.66;;;9.83;96.10
51617;BME280;37697;52.588;13.394;2023-04-15T17:33:08;100627.01;;;9.81;96.05
51617;BME280;37697;52.588;13.394;2023-04-15T17:38:33;100635.27;;;9.77;96.14
51617;BME280;37697;52.588;13.394;2023-04-15T17:43:38;100641.55;;;9.73;96.17
51617;BME280;37697;52.588;13.394;2023-04-15T17:48:44;100651.39;;;9.70;96.53
51617;BME280;37697;52.588;13.394;2023-04-15T17:53:50;100652.12;;;9.69;96.44
51617;BME280;37697;52.588;13.394;2023-04-15T17:58:55;100658.65;;;9.66;96.68
51617;BME280;37697;52.588;13.394;2023-04-15T18:04:02;100666.11;;;9.67;96.54
51617;BME280;37697;52.588;13.394;2023-04-15T18:09:08;100673.22;;;9.67;96.59
51617;BME280;37697;52.588;13.394;2023-04-15T18:14:13;100678.47;;;9.65;96.72
51617;BME280;37697;52.588;13.394;2023-04-15T18:19:37;100688.65;;;9.65;96.90
51617;BME280;37697;52.588;13.394;2023-04-15T18:24:43;100695.47;;;9.64;97.12
51617;BME280;37697;52.588;13.394;2023-04-15T18:29:48;100699.77;;;9.67;97.29
51617;BME280;37697;52.588;13.394;2023-04-15T18:34:54;100706.38;;;9.67;97.12
51617;BME280;37697;52.588;13.394;2023-04-15T18:40:00;100715.46;;;9.62;97.05
51617;BME280;37697;52.588;13.394;2023-04-15T18:45:07;100722.48;;;9.60;97.23
51617;BME280;37697;52.588;13.394;2023-04-15T18:50:12;100727.80;;;9.57;97.22
51617;BME280;37697;52.588;13.394;2023-04-15T18:55:18;100734.69;;;9.52;97.28
51617;BME280;37697;52.588;13.394;2023-04-15T19:00:23;100737.25;;;9.50;97.49
51617;BME280;37697;52.588;13.394;2023-04-15T19:05:29;100744.52;;;9.49;97.60
51617;BME280;37697;52.588;13.394;2023-04-15T19:10:35;100745.34;;;9.49;97.60
51617;BME280;37697;52.588;13.394;2023-04-15T19:15:41;100752.27;;;9.47;97.69
51617;BME280;37697;52.588;13.394;2023-04-15T19:20:46;100759.88;;;9.48;97.79
51617;BME280;37697;52.588;13.394;2023-04-15T19:25:54;100762.73;;;9.47;97.55
51617;BME280;37697;52.588;13.394;2023-04-15T19:31:01;100770.62;;;9.46;97.67
51617;BME280;37697;52.588;13.394;2023-04-15T19:36:07;100769.00;;;9.43;97.59
51617;BME280;37697;52.588;13.394;2023-04-15T19:41:12;100772.94;;;9.41;97.78
51617;BME280;37697;52.588;13.394;2023-04-15T19:46:18;100786.85;;;9.41;97.66
51617;BME280;37697;52.588;13.394;2023-04-15T19:51:25;100784.64;;;9.37;97.63
51617;BME280;37697;52.588;13.394;2023-04-15T19:56:30;100786.78;;;9.38;97.89
51617;BME280;37697;52.588;13.394;2023-04-15T20:01:38;100792.01;;;9.37;97.96
51617;BME280;37697;52.588;13.394;2023-04-15T20:06:44;100795.34;;;9.35;97.65
51617;BME280;37697;52.588;13.394;2023-04-15T20:11:49;100796.83;;;9.34;97.71
51617;BME280;37697;52.588;13.394;2023-04-15T20:17:15;100799.42;;;9.34;97.72
51617;BME280;37697;52.588;13.394;2023-04-15T20:22:20;100800.52;;;9.34;97.75
51617;BME280;37697;52.588;13.394;2023-04-15T20:27:26;100803.61;;;9.33;97.81
51617;BME280;37697;52.588;13.394;2023-04-15T20:32:32;100811.89;;;9.30;98.01
51617;BME280;37697;52.588;13.394;2023-04-15T20:37:43;100811.06;;;9.29;98.07
51617;BME280;37697;52.588;13.394;2023-04-15T20:42:49;100815.59;;;9.28;98.06
51617;BME280;37697;52.588;13.394;2023-04-15T20:47:54;100817.17;;;9.28;97.87
51617;BME280;37697;52.588;13.394;2023-04-15T20:53:00;100815.59;;;9.27;98.09
51617;BME280;37697;52.588;13.394;2023-04-15T20:58:06;100818.07;;;9.27;97.94
51617;BME280;37697;52.588;13.394;2023-04-15T21:03:12;100822.74;;;9.27;98.07
51617;BME280;37697;52.588;13.394;2023-04-15T21:08:18;100827.10;;;9.26;97.82
51617;BME280;37697;52.588;13.394;2023-04-15T21:13:24;100831.35;;;9.24;97.88
51617;BME280;37697;52.588;13.394;2023-04-15T21:18:29;100832.08;;;9.23;98.15
51617;BME280;37697;52.588;13.394;2023-04-15T21:23:35;100836.42;;;9.23;98.35
51617;BME280;37697;52.588;13.394;2023-04-15T21:28:41;100843.97;;;9.21;98.30
51617;BME280;37697;52.588;13.394;2023-04-15T21:33:46;100849.33;;;9.19;98.19
51617;BME280;37697;52.588;13.394;2023-04-15T21:38:52;100855.09;;;9.20;98.49
51617;BME280;37697;52.588;13.394;2023-04-15T21:43:57;100859.77;;;9.19;98.33
51617;BME280;37697;52.588;13.394;2023-04-15T21:49:02;100862.58;;;9.19;98.34
51617;BME280;37697;52.588;13.394;2023-04-15T21:54:08;100866.73;;;9.19;98.40
51617;BME280;37697;52.588;13.394;2023-04-15T21:59:14;100872.34;;;9.20;98.63
51617;BME280;37697;52.588;13.394;2023-04-15T22:04:19;100880.48;;;9.21;98.51
51617;BME280;37697;52.588;13.394;2023-04-15T22:09:25;100880.80;;;9.20;98.38
51617;BME280;37697;52.588;13.394;2023-04-15T22:14:31;100884.65;;;9.20;98.55
51617;BME280;37697;52.588;13.394;2023-04-15T22:19:36;100888.27;;;9.19;98.72
51617;BME280;37697;52.588;13.394;2023-04-15T22:24:41;100890.92;;;9.19;98.73
51617;BME280;37697;52.588;13.394;2023-04-15T22:29:47;100904.96;;;9.16;98.55
51617;BME280;37697;52.588;13.394;2023-04-15T22:34:52;100905.88;;;9.12;98.77
51617;BME280;37697;52.588;13.394;2023-04-15T22:39:58;100911.55;;;9.11;98.69
51617;BME280;37697;52.588;13.394;2023-04-15T22:45:05;100912.38;;;9.12;98.79
51617;BME280;37697;52.588;13.394;2023-04-15T22:50:11;100917.09;;;9.12;98.66
51617;BME280;37697;52.588;13.394;2023-04-15T22:55:16;100923.95;;;9.14;98.77
51617;BME280;37697;52.588;13.394;2023-04-15T23:00:22;100930.16;;;9.14;98.68
51617;BME280;37697;52.588;13.394;2023-04-15T23:05:27;100930.77;;;9.14;98.69
51617;BME280;37697;52.588;13.394;2023-04-15T23:10:33;100936.05;;;9.13;98.73
51617;BME280;37697;52.588;13.394;2023-04-15T23:15:38;100939.28;;;9.13;98.75
51617;BME280;37697;52.588;13.394;2023-04-15T23:20:44;100946.60;;;9.13;98.61
51617;BME280;37697;52.588;13.394;2023-04-15T23:25:49;100946.05;;;9.13;98.62
51617;BME280;37697;52.588;13.394;2023-04-15T23:30:55;100952.85;;;9.14;98.97
51617;BME280;37697;52.588;13.394;2023-04-15T23:36:03;100954.11;;;9.13;98.70
51617;BME280;37697;52.588;13.394;2023-04-15T23:41:09;100953.89;;;9.14;98.78
51617;BME280;37697;52.588;13.394;2023-04-15T23:46:16;100952.70;;;9.14;98.60
51617;BME280;37697;52.588;13.394;2023-04-15T23:51:21;100957.52;;;9.14;98.72
51617;BME280;37697;52.588;13.394;2023-04-15T23:56:26;100955.06;;;9.12;98.68
